sensor_id;sensor_type;location;lat;lon;timestamp;temperature;humidity
16732;DHT22;8484;50.904;9.192;2022-12-18T00:00:46;-9.30;99.90
16732;DHT22;8484;50.904;9.192;2022-12-18T00:03:14;-9.30;99.90
16732;DHT22;8484;50.904;9.192;2022-12-18T00:05:46;-9.10;99.90
16732;DHT22;8484;50.904;9.192;2022-12-18T00:08:14;-9.10;99.90
16732;DHT22;8484;50.904;9.192;2022-12-18T00:10:41;-9.00;99.90
16732;DHT22;8484;50.904;9.192;2022-12-18T00:13:07;-8.80;99.90
16732;DHT22;8484;50.904;9.192;2022-12-18T00:15:36;-8.90;99.90
16732;DHT22;8484;50.904;9.192;2022-12-18T00:18:03;-9.10;99.90
16732;DHT22;8484;50.904;9.192;2022-12-18T00:20:30;-9.10;99.90
16732;DHT22;8484;50.904;9.192;2022-12-18T00:22:57;-9.10;99.90
16732;DHT22;8484;50.904;9.192;2022-12-18T00:25:24;-8.90;99.90
16732;DHT22;8484;50.904;9.192;2022-12-18T00:27:53;-8.90;99.90
16732;DHT22;8484;50.904;9.192;2022-12-18T00:30:19;-8.90;99.90
16732;DHT22;8484;50.904;9.192;2022-12-18T00:32:48;-9.00;99.90
16732;DHT22;8484;50.904;9.192;2022-12-18T00:35:15;-9.10;99.90
16732;DHT22;8484;50.904;9.192;2022-12-18T00:37:41;-8.50;99.90
16732;DHT22;8484;50.904;9.192;2022-12-18T00:40:09;-9.40;99.90
16732;DHT22;8484;50.904;9.192;2022-12-18T00:42:36;-9.40;99.90
16732;DHT22;8484;50.904;9.192;2022-12-18T00:45:21;-9.50;99.90
16732;DHT22;8484;50.904;9.192;2022-12-18T00:47:50;-9.70;99.90
16732;DHT22;8484;50.904;9.192;2022-12-18T00:50:17;-9.90;99.90
16732;DHT22;8484;50.904;9.192;2022-12-18T00:52:44;-10.10;99.90
16732;DHT22;8484;50.904;9.192;2022-12-18T00:55:11;-9.90;99.90
16732;DHT22;8484;50.904;9.192;2022-12-18T00:57:38;-10.00;99.90
16732;DHT22;8484;50.904;9.192;2022-12-18T01:00:08;-9.80;99.90
16732;DHT22;8484;50.904;9.192;2022-12-18T15:42:29;-4.50;99.90
16732;DHT22;8484;50.904;9.192;2022-12-18T15:45:14;-4.40;99.90
16732;DHT22;8484;50.904;9.192;2022-12-18T15:47:41;-4.50;99.90
16732;DHT22;8484;50.904;9.192;2022-12-18T15:50:08;-3.90;99.90
16732;DHT22;8484;50.904;9.192;2022-12-18T15:52:39;-4.40;99.90
16732;DHT22;8484;50.904;9.192;2022-12-18T15:55:10;-4.40;99.90
16732;DHT22;8484;50.904;9.192;2022-12-18T15:57:57;-4.50;99.90
16732;DHT22;8484;50.904;9.192;2022-12-18T16:00:24;-4.60;99.90
16732;DHT22;8484;50.904;9.192;2022-12-18T16:02:52;-4.00;99.90
16732;DHT22;8484;50.904;9.192;2022-12-18T16:05:20;-4.70;99.90
16732;DHT22;8484;50.904;9.192;2022-12-18T16:07:47;-4.70;99.90
16732;DHT22;8484;50.904;9.192;2022-12-18T16:10:15;-4.40;99.90
16732;DHT22;8484;50.904;9.192;2022-12-18T16:12:43;-4.70;99.90
16732;DHT22;8484;50.904;9.192;2022-12-18T16:15:13;-4.70;99.90
16732;DHT22;8484;50.904;9.192;2022-12-18T16:17:43;-4.70;99.90
16732;DHT22;8484;50.904;9.192;2022-12-18T16:20:12;-4.70;99.90
16732;DHT22;8484;50.904;9.192;2022-12-18T16:22:41;-4.60;99.90
16732;DHT22;8484;50.904;9.192;2022-12-18T16:25:14;-4.70;99.90
16732;DHT22;8484;50.904;9.192;2022-12-18T16:27:43;-4.60;99.90
16732;DHT22;8484;50.904;9.192;2022-12-18T16:30:14;-4.60;99.90
16732;DHT22;8484;50.904;9.192;2022-12-18T16:32:41;-4.60;99.90
16732;DHT22;8484;50.904;9.192;2022-12-18T16:35:10;-4.60;99.90
16732;DHT22;8484;50.904;9.192;2022-12-18T16:37:38;-4.50;99.90
16732;DHT22;8484;50.904;9.192;2022-12-18T16:40:07;-4.50;99.90
16732;DHT22;8484;50.904;9.192;2022-12-18T16:42:34;-4.60;99.90
16732;DHT22;8484;50.904;9.192;2022-12-18T16:45:02;-4.30;99.90
16732;DHT22;8484;50.904;9.192;2022-12-18T16:47:30;-4.60;99.90
16732;DHT22;8484;50.904;9.192;2022-12-18T16:49:58;-4.50;99.90
16732;DHT22;8484;50.904;9.192;2022-12-18T16:52:25;-4.50;99.90
16732;DHT22;8484;50.904;9.192;2022-12-18T16:54:52;-4.50;99.90
16732;DHT22;8484;50.904;9.192;2022-12-18T16:57:20;-4.50;99.90
16732;DHT22;8484;50.904;9.192;2022-12-18T16:59:47;-4.50;99.90
16732;DHT22;8484;50.904;9.192;2022-12-18T17:02:16;-4.50;99.90
16732;DHT22;8484;50.904;9.192;2022-12-18T17:04:45;-4.50;99.90
16732;DHT22;8484;50.904;9.192;2022-12-18T17:07:12;-4.40;99.90
16732;DHT22;8484;50.904;9.192;2022-12-18T17:09:39;-4.40;99.90
16732;DHT22;8484;50.904;9.192;2022-12-18T17:12:07;-4.40;99.90
16732;DHT22;8484;50.904;9.192;2022-12-18T17:14:35;-4.30;99.90
16732;DHT22;8484;50.904;9.192;2022-12-18T17:17:03;-4.30;99.90
16732;DHT22;8484;50.904;9.192;2022-12-18T17:19:30;-3.70;99.90
16732;DHT22;8484;50.904;9.192;2022-12-18T17:21:58;-4.30;99.90
16732;DHT22;8484;50.904;9.192;2022-12-18T17:24:25;-3.10;99.90
16732;DHT22;8484;50.904;9.192;2022-12-18T17:26:52;-4.20;99.90
16732;DHT22;8484;50.904;9.192;2022-12-18T17:29:19;-4.20;99.90
16732;DHT22;8484;50.904;9.192;2022-12-18T17:31:47;-4.10;99.90
16732;DHT22;8484;50.904;9.192;2022-12-18T17:34:14;-4.10;99.90
16732;DHT22;8484;50.904;9.192;2022-12-18T17:36:41;-4.10;99.90
16732;DHT22;8484;50.904;9.192;2022-12-18T17:39:16;-4.10;99.90
16732;DHT22;8484;50.904;9.192;2022-12-18T17:41:45;-2.90;99.90
16732;DHT22;8484;50.904;9.192;2022-12-18T17:44:12;-4.00;99.90
16732;DHT22;8484;50.904;9.192;2022-12-18T17:46:39;-3.90;99.90
16732;DHT22;8484;50.904;9.192;2022-12-18T17:49:06;-3.90;99.90
16732;DHT22;8484;50.904;9.192;2022-12-18T17:51:33;-3.90;99.90
16732;DHT22;8484;50.904;9.192;2022-12-18T17:53:59;-3.90;99.90
16732;DHT22;8484;50.904;9.192;2022-12-18T17:56:28;-3.90;99.90
16732;DHT22;8484;50.904;9.192;2022-12-18T17:58:55;-3.80;99.90
16732;DHT22;8484;50.904;9.192;2022-12-18T18:01:24;-3.20;99.90
16732;DHT22;8484;50.904;9.192;2022-12-18T18:03:51;-3.80;99.90
16732;DHT22;8484;50.904;9.192;2022-12-18T18:06:20;-3.70;99.90
16732;DHT22;8484;50.904;9.192;2022-12-18T18:08:48;-3.70;99.90
16732;DHT22;8484;50.904;9.192;2022-12-18T18:11:17;-3.70;99.90
16732;DHT22;8484;50.904;9.192;2022-12-18T18:14:06;-3.40;99.90
16732;DHT22;8484;50.904;9.192;2022-12-18T18:16:37;-3.60;99.90
16732;DHT22;8484;50.904;9.192;2022-12-18T18:19:08;-3.60;99.90
16732;DHT22;8484;50.904;9.192;2022-12-18T18:21:38;-3.60;99.90
16732;DHT22;8484;50.904;9.192;2022-12-18T18:24:05;-3.10;99.90
16732;DHT22;8484;50.904;9.192;2022-12-18T18:26:34;-3.50;99.90
16732;DHT22;8484;50.904;9.192;2022-12-18T18:29:04;-3.40;99.90
16732;DHT22;8484;50.904;9.192;2022-12-18T18:31:33;-3.50;99.90
16732;DHT22;8484;50.904;9.192;2022-12-18T18:34:01;-2.70;99.90
16732;DHT22;8484;50.904;9.192;2022-12-18T18:36:29;-3.40;99.90
16732;DHT22;8484;50.904;9.192;2022-12-18T18:38:58;-3.40;99.90
16732;DHT22;8484;50.904;9.192;2022-12-18T18:41:26;-3.30;99.90
16732;DHT22;8484;50.904;9.192;2022-12-18T18:43:55;-3.20;99.90
16732;DHT22;8484;50.904;9.192;2022-12-18T18:46:24;-3.30;99.90
16732;DHT22;8484;50.904;9.192;2022-12-18T18:48:52;-3.10;99.90
16732;DHT22;8484;50.904;9.192;2022-12-18T18:51:19;-3.30;99.90
16732;DHT22;8484;50.904;9.192;2022-12-18T18:53:48;-3.30;99.90
16732;DHT22;8484;50.904;9.192;2022-12-18T18:56:17;-3.30;99.90
16732;DHT22;8484;50.904;9.192;2022-12-18T18:58:45;-3.20;99.90
16732;DHT22;8484;50.904;9.192;2022-12-18T19:01:13;-3.00;99.90
16732;DHT22;8484;50.904;9.192;2022-12-18T19:03:43;-3.20;99.90
16732;DHT22;8484;50.904;9.192;2022-12-18T19:06:13;-3.10;99.90
16732;DHT22;8484;50.904;9.192;2022-12-18T19:08:40;-3.10;99.90
16732;DHT22;8484;50.904;9.192;2022-12-18T19:11:08;-3.10;99.90
16732;DHT22;8484;50.904;9.192;2022-12-18T19:13:56;-3.10;99.90
16732;DHT22;8484;50.904;9.192;2022-12-18T19:16:24;-3.10;99.90
16732;DHT22;8484;50.904;9.192;2022-12-18T19:18:53;-3.10;99.90
16732;DHT22;8484;50.904;9.192;2022-12-18T19:21:20;-3.20;99.90
16732;DHT22;8484;50.904;9.192;2022-12-18T19:23:48;-3.20;99.90
16732;DHT22;8484;50.904;9.192;2022-12-18T19:26:15;-3.30;99.90
16732;DHT22;8484;50.904;9.192;2022-12-18T19:28:43;-3.40;99.90
16732;DHT22;8484;50.904;9.192;2022-12-18T19:31:12;-3.60;99.90
16732;DHT22;8484;50.904;9.192;2022-12-18T19:33:41;-3.80;99.90
16732;DHT22;8484;50.904;9.192;2022-12-18T19:36:11;-4.00;99.90
16732;DHT22;8484;50.904;9.192;2022-12-18T19:38:39;-4.20;99.90
16732;DHT22;8484;50.904;9.192;2022-12-18T19:41:06;-3.90;99.90
16732;DHT22;8484;50.904;9.192;2022-12-18T19:43:35;-4.20;99.90
16732;DHT22;8484;50.904;9.192;2022-12-18T19:46:02;-4.30;99.90
16732;DHT22;8484;50.904;9.192;2022-12-18T19:48:30;-4.20;99.90
16732;DHT22;8484;50.904;9.192;2022-12-18T19:50:57;-4.30;99.90
16732;DHT22;8484;50.904;9.192;2022-12-18T19:53:25;-4.30;99.90
16732;DHT22;8484;50.904;9.192;2022-12-18T19:55:52;-4.30;99.90
16732;DHT22;8484;50.904;9.192;2022-12-18T19:58:19;-4.30;99.90
16732;DHT22;8484;50.904;9.192;2022-12-18T20:00:46;-4.40;99.90
16732;DHT22;8484;50.904;9.192;2022-12-18T20:03:13;-4.40;99.90
16732;DHT22;8484;50.904;9.192;2022-12-18T20:05:40;-4.40;99.90
16732;DHT22;8484;50.904;9.192;2022-12-18T20:08:07;-4.30;99.90
16732;DHT22;8484;50.904;9.192;2022-12-18T20:10:35;-4.30;99.90
16732;DHT22;8484;50.904;9.192;2022-12-18T20:13:02;-4.30;99.90
16732;DHT22;8484;50.904;9.192;2022-12-18T20:15:29;-4.30;99.90
16732;DHT22;8484;50.904;9.192;2022-12-18T20:17:56;-4.30;99.90
16732;DHT22;8484;50.904;9.192;2022-12-18T20:20:23;-4.30;99.90
16732;DHT22;8484;50.904;9.192;2022-12-18T20:22:49;-4.20;99.90
16732;DHT22;8484;50.904;9.192;2022-12-18T20:25:19;-4.20;99.90
16732;DHT22;8484;50.904;9.192;2022-12-18T20:27:47;-4.20;99.90
16732;DHT22;8484;50.904;9.192;2022-12-18T20:30:14;-4.10;99.90
16732;DHT22;8484;50.904;9.192;2022-12-18T20:32:41;-3.90;99.90
16732;DHT22;8484;50.904;9.192;2022-12-18T20:35:08;-4.00;99.90
16732;DHT22;8484;50.904;9.192;2022-12-18T20:37:35;-3.90;99.90
16732;DHT22;8484;50.904;9.192;2022-12-18T20:40:02;-3.80;99.90
16732;DHT22;8484;50.904;9.192;2022-12-18T20:42:29;-3.90;99.90
16732;DHT22;8484;50.904;9.192;2022-12-18T20:44:57;-3.90;99.90
16732;DHT22;8484;50.904;9.192;2022-12-18T20:47:24;-4.00;99.90
16732;DHT22;8484;50.904;9.192;2022-12-18T20:49:51;-4.10;99.90
16732;DHT22;8484;50.904;9.192;2022-12-18T20:52:18;-4.00;99.90
16732;DHT22;8484;50.904;9.192;2022-12-18T20:54:45;-3.90;99.90
16732;DHT22;8484;50.904;9.192;2022-12-18T20:57:12;-3.90;99.90
16732;DHT22;8484;50.904;9.192;2022-12-18T20:59:39;-3.90;99.90
16732;DHT22;8484;50.904;9.192;2022-12-18T21:02:09;-4.00;99.90
16732;DHT22;8484;50.904;9.192;2022-12-18T21:04:38;-4.00;99.90
16732;DHT22;8484;50.904;9.192;2022-12-18T21:07:05;-3.50;99.90
16732;DHT22;8484;50.904;9.192;2022-12-18T21:09:32;-3.90;99.90
16732;DHT22;8484;50.904;9.192;2022-12-18T21:11:59;-3.70;99.90
16732;DHT22;8484;50.904;9.192;2022-12-18T21:14:44;-3.80;99.90
16732;DHT22;8484;50.904;9.192;2022-12-18T21:17:12;-3.70;99.90
16732;DHT22;8484;50.904;9.192;2022-12-18T21:19:39;-3.70;99.90
16732;DHT22;8484;50.904;9.192;2022-12-18T21:22:06;-3.70;99.90
16732;DHT22;8484;50.904;9.192;2022-12-18T21:24:33;-3.60;99.90
16732;DHT22;8484;50.904;9.192;2022-12-18T21:27:02;-3.80;99.90
16732;DHT22;8484;50.904;9.192;2022-12-18T21:29:29;-3.80;99.90
16732;DHT22;8484;50.904;9.192;2022-12-18T21:31:56;-3.60;99.90
16732;DHT22;8484;50.904;9.192;2022-12-18T21:34:25;-3.40;99.90
16732;DHT22;8484;50.904;9.192;2022-12-18T21:36:53;-3.50;99.90
16732;DHT22;8484;50.904;9.192;2022-12-18T21:39:21;-3.40;99.90
16732;DHT22;8484;50.904;9.192;2022-12-18T21:41:48;-3.20;99.90
16732;DHT22;8484;50.904;9.192;2022-12-18T21:44:32;-3.50;99.90
16732;DHT22;8484;50.904;9.192;2022-12-18T21:46:59;-3.60;99.90
16732;DHT22;8484;50.904;9.192;2022-12-18T21:49:28;-3.70;99.90
16732;DHT22;8484;50.904;9.192;2022-12-18T21:51:56;-3.10;99.90
16732;DHT22;8484;50.904;9.192;2022-12-18T21:54:24;-3.70;99.90
16732;DHT22;8484;50.904;9.192;2022-12-18T21:56:53;-2.80;99.90
16732;DHT22;8484;50.904;9.192;2022-12-18T21:59:22;-3.60;99.90
16732;DHT22;8484;50.904;9.192;2022-12-18T22:01:50;-3.40;99.90
16732;DHT22;8484;50.904;9.192;2022-12-18T22:04:18;-3.50;99.90
16732;DHT22;8484;50.904;9.192;2022-12-18T22:06:47;-3.50;99.90
16732;DHT22;8484;50.904;9.192;2022-12-18T22:09:16;-3.50;99.90
16732;DHT22;8484;50.904;9.192;2022-12-18T22:11:43;-3.40;99.90
16732;DHT22;8484;50.904;9.192;2022-12-18T22:14:11;-3.40;99.90
16732;DHT22;8484;50.904;9.192;2022-12-18T22:16:39;-3.20;99.90
16732;DHT22;8484;50.904;9.192;2022-12-18T22:19:08;-3.30;99.90
16732;DHT22;8484;50.904;9.192;2022-12-18T22:21:37;-2.90;99.90
16732;DHT22;8484;50.904;9.192;2022-12-18T22:24:07;-3.30;99.90
16732;DHT22;8484;50.904;9.192;2022-12-18T22:26:35;-3.30;99.90
16732;DHT22;8484;50.904;9.192;2022-12-18T22:29:03;-3.00;99.90
16732;DHT22;8484;50.904;9.192;2022-12-18T22:31:48;-3.30;99.90
16732;DHT22;8484;50.904;9.192;2022-12-18T22:34:15;-3.30;99.90
16732;DHT22;8484;50.904;9.192;2022-12-18T22:36:44;-3.10;99.90
16732;DHT22;8484;50.904;9.192;2022-12-18T22:39:15;-3.20;99.90
16732;DHT22;8484;50.904;9.192;2022-12-18T22:41:42;-3.20;99.90
16732;DHT22;8484;50.904;9.192;2022-12-18T22:44:10;-3.20;99.90
16732;DHT22;8484;50.904;9.192;2022-12-18T22:46:38;-3.00;99.90
16732;DHT22;8484;50.904;9.192;2022-12-18T22:49:06;-3.20;99.90
16732;DHT22;8484;50.904;9.192;2022-12-18T22:51:33;-2.70;99.90
16732;DHT22;8484;50.904;9.192;2022-12-18T22:54:00;-3.30;99.90
16732;DHT22;8484;50.904;9.192;2022-12-18T22:56:28;-3.30;99.90
16732;DHT22;8484;50.904;9.192;2022-12-18T22:58:56;-3.20;99.90
16732;DHT22;8484;50.904;9.192;2022-12-18T23:01:25;-3.00;99.90
16732;DHT22;8484;50.904;9.192;2022-12-18T23:03:53;-3.10;99.90
16732;DHT22;8484;50.904;9.192;2022-12-18T23:06:22;-3.10;99.90
16732;DHT22;8484;50.904;9.192;2022-12-18T23:08:49;-3.10;99.90
16732;DHT22;8484;50.904;9.192;2022-12-18T23:11:17;-3.00;99.90
16732;DHT22;8484;50.904;9.192;2022-12-18T23:13:46;-2.70;99.90
16732;DHT22;8484;50.904;9.192;2022-12-18T23:16:16;-3.00;99.90
16732;DHT22;8484;50.904;9.192;2022-12-18T23:18:43;-3.00;99.90
16732;DHT22;8484;50.904;9.192;2022-12-18T23:21:11;-3.00;99.90
16732;DHT22;8484;50.904;9.192;2022-12-18T23:23:39;-3.10;99.90
16732;DHT22;8484;50.904;9.192;2022-12-18T23:26:08;-3.10;99.90
16732;DHT22;8484;50.904;9.192;2022-12-18T23:28:36;-3.10;99.90
16732;DHT22;8484;50.904;9.192;2022-12-18T23:31:07;-3.10;99.90
16732;DHT22;8484;50.904;9.192;2022-12-18T23:33:35;-3.10;99.90
16732;DHT22;8484;50.904;9.192;2022-12-18T23:36:03;-2.80;99.90
16732;DHT22;8484;50.904;9.192;2022-12-18T23:38:31;-3.00;99.90
16732;DHT22;8484;50.904;9.192;2022-12-18T23:40:59;-3.00;99.90
16732;DHT22;8484;50.904;9.192;2022-12-18T23:43:26;-3.00;99.90
16732;DHT22;8484;50.904;9.192;2022-12-18T23:45:54;-2.90;99.90
16732;DHT22;8484;50.904;9.192;2022-12-18T23:48:22;-3.00;99.90
16732;DHT22;8484;50.904;9.192;2022-12-18T23:50:49;-2.90;99.90
16732;DHT22;8484;50.904;9.192;2022-12-18T23:53:16;-3.00;99.90
16732;DHT22;8484;50.904;9.192;2022-12-18T23:55:43;-2.90;99.90
16732;DHT22;8484;50.904;9.192;2022-12-18T23:58:15;-3.00;99.90
